Reardan, Washington
Current Conditions -  °F | °C
As of 9:25 AM on Thursday 18 Dec 2014 (Local Time) from KSKA Reporting Station
Haze Haze  
Wind Chill: 26°   Ceiling: 300
Heat Index: 32°   Visibility: 0.75mi
Dew Point: 32°   Wind: 6mph
Humidity: 100%   Direction: 250°WSW
Pressure: 30"   Gusts: NA
Location:  47.67°N, 117.88°W
Report Text: KSKA 181725Z AUTO 25005KT 3/4SM R23/4500FT BR VV003 00/00 A3000 RMK AO2 VIS 3/4V1 3/4 UPE06 $
Loading
Personal Weather Stations






























Interactive Weather Map New forecast layout! Learn more

10-Day Weather Forecast

Advertisements
Track Severe Weather on mobile